createdAt,value
2022-10-04T00:00:03.875Z,63.57
2022-10-04T00:01:03.932Z,63.54
2022-10-04T00:02:04.080Z,63.54
2022-10-04T00:03:03.871Z,63.47
2022-10-04T00:04:03.859Z,63.44
2022-10-04T00:05:03.840Z,63.47
2022-10-04T00:06:03.846Z,63.57
2022-10-04T00:07:03.812Z,63.37
2022-10-04T00:08:03.993Z,63.54
2022-10-04T00:09:03.783Z,63.47
2022-10-04T00:10:03.742Z,63.57
2022-10-04T00:11:03.735Z,63.57
2022-10-04T00:12:03.720Z,63.47
2022-10-04T00:13:03.728Z,63.37
2022-10-04T00:14:03.867Z,63.37
2022-10-04T00:15:03.675Z,63.27
2022-10-04T00:16:03.759Z,63.37
2022-10-04T00:17:03.650Z,63.47
2022-10-04T00:18:03.627Z,63.07
2022-10-04T00:19:03.867Z,63.27
2022-10-04T00:20:03.776Z,63.47
2022-10-04T00:21:03.629Z,63.37
2022-10-04T00:22:03.613Z,63.37
2022-10-04T00:23:03.553Z,63.17
2022-10-04T00:24:03.561Z,63.37
2022-10-04T00:25:03.536Z,63.17
2022-10-04T00:26:03.839Z,63.47
2022-10-04T00:27:03.504Z,63.37
2022-10-04T00:28:03.567Z,63.17
2022-10-04T00:29:03.504Z,63.27
2022-10-04T00:30:03.505Z,63.37
2022-10-04T00:31:03.492Z,63.47
2022-10-04T00:32:03.573Z,63.17
2022-10-04T00:33:03.412Z,63.47
2022-10-04T00:34:03.418Z,63.17
2022-10-04T00:35:03.398Z,63.17
2022-10-04T00:36:03.378Z,63.27
2022-10-04T00:37:03.362Z,63.17
2022-10-04T00:38:03.470Z,63.07
2022-10-04T00:39:03.498Z,63.27
2022-10-04T00:40:03.341Z,63.17
2022-10-04T00:41:03.321Z,63.07
2022-10-04T00:42:03.333Z,63.27
2022-10-04T00:43:03.308Z,63.37
2022-10-04T00:44:03.492Z,63.17
2022-10-04T00:45:03.281Z,63.07
2022-10-04T00:46:03.280Z,63.07
2022-10-04T00:47:03.255Z,63.27
2022-10-04T00:48:03.206Z,62.97
2022-10-04T00:49:03.195Z,63.07
2022-10-04T00:50:03.316Z,62.97
2022-10-04T00:51:03.173Z,62.87
2022-10-04T00:52:03.183Z,62.87
2022-10-04T00:53:03.151Z,62.87
2022-10-04T00:54:03.172Z,62.77
2022-10-04T00:55:03.799Z,62.87
2022-10-04T00:56:03.217Z,63.07
2022-10-04T00:57:03.104Z,62.97
2022-10-04T00:58:03.075Z,62.67
2022-10-04T00:59:03.057Z,62.77
2022-10-04T01:00:03.047Z,62.87
2022-10-04T01:01:03.051Z,62.87
2022-10-04T01:02:03.219Z,62.87
2022-10-04T01:03:03.014Z,62.77
2022-10-04T01:04:02.992Z,62.67
2022-10-04T01:05:02.968Z,62.97
2022-10-04T01:06:02.959Z,62.57
2022-10-04T01:07:02.944Z,62.97
2022-10-04T01:08:03.157Z,62.87
2022-10-04T01:09:02.900Z,63.07
2022-10-04T01:10:02.924Z,63.17
2022-10-04T01:11:02.882Z,62.77
2022-10-04T01:12:02.909Z,62.67
2022-10-04T01:13:02.865Z,62.67
2022-10-04T01:14:03.132Z,62.67
2022-10-04T01:15:02.834Z,62.87
2022-10-04T01:16:02.906Z,62.97
2022-10-04T01:17:02.820Z,62.67
2022-10-04T01:18:05.410Z,62.87
2022-10-04T01:19:02.779Z,62.67
2022-10-04T01:20:02.970Z,62.40
2022-10-04T01:21:02.754Z,62.48
2022-10-04T01:22:02.731Z,62.77
2022-10-04T01:23:02.726Z,62.67
2022-10-04T01:24:02.723Z,62.67
2022-10-04T01:25:02.698Z,62.57
2022-10-04T01:26:02.816Z,62.87
2022-10-04T01:27:03.060Z,62.40
2022-10-04T01:28:02.730Z,63.10
2022-10-04T01:29:02.626Z,62.50
2022-10-04T01:30:02.636Z,62.60
2022-10-04T01:31:02.666Z,62.50
2022-10-04T01:32:02.718Z,62.90
2022-10-04T01:33:02.603Z,62.90
2022-10-04T01:34:02.612Z,62.70
2022-10-04T01:35:02.568Z,63.00
2022-10-04T01:36:02.546Z,62.70
2022-10-04T01:37:02.525Z,62.90
2022-10-04T01:38:02.641Z,62.81
2022-10-04T01:39:02.501Z,62.70
2022-10-04T01:40:02.471Z,62.60
2022-10-04T01:41:02.532Z,62.50
2022-10-04T01:42:02.459Z,62.81
2022-10-04T01:43:02.485Z,62.90
2022-10-04T01:44:02.659Z,62.70
2022-10-04T01:45:02.421Z,63.10
2022-10-04T01:46:02.496Z,62.50
2022-10-04T01:47:02.388Z,62.70
2022-10-04T01:48:02.386Z,62.90
2022-10-04T01:49:02.357Z,62.70
2022-10-04T01:50:02.454Z,62.20
2022-10-04T01:51:02.340Z,62.81
2022-10-04T01:52:03.039Z,62.60
2022-10-04T01:53:02.299Z,62.40
2022-10-04T01:54:02.287Z,62.90
2022-10-04T01:55:02.278Z,62.81
2022-10-04T01:56:02.613Z,62.90
2022-10-04T01:57:02.240Z,62.70
2022-10-04T01:58:02.230Z,62.30
2022-10-04T01:59:02.209Z,62.81
2022-10-04T02:00:02.205Z,62.81
2022-10-04T02:01:02.274Z,62.60
2022-10-04T02:02:02.391Z,62.81
2022-10-04T02:03:02.169Z,62.70
2022-10-04T02:04:02.145Z,62.70
2022-10-04T02:05:02.211Z,62.60
2022-10-04T02:06:02.136Z,62.90
2022-10-04T02:07:02.118Z,62.90
2022-10-04T02:08:02.186Z,62.70
2022-10-04T02:09:02.117Z,63.00
2022-10-04T02:10:02.070Z,62.50
2022-10-04T02:11:02.074Z,62.70
2022-10-04T02:12:02.213Z,62.70
2022-10-04T02:13:02.047Z,62.60
2022-10-04T02:14:02.191Z,62.70
2022-10-04T02:15:02.062Z,62.60
2022-10-04T02:16:02.096Z,62.60
2022-10-04T02:17:02.057Z,62.70
2022-10-04T02:18:02.978Z,62.50
2022-10-04T02:19:01.994Z,62.70
2022-10-04T02:20:02.781Z,62.70
2022-10-04T02:21:01.955Z,62.50
2022-10-04T02:22:01.973Z,62.60
2022-10-04T02:23:01.888Z,62.50
2022-10-04T02:24:01.895Z,62.50
2022-10-04T02:25:01.992Z,62.40
2022-10-04T02:26:02.088Z,62.60
2022-10-04T02:27:01.967Z,62.40
2022-10-04T02:28:02.075Z,62.50
2022-10-04T02:29:01.894Z,62.40
2022-10-04T02:30:01.855Z,62.60
2022-10-04T02:31:01.793Z,62.40
2022-10-04T02:32:02.057Z,62.60
2022-10-04T02:33:01.755Z,62.50
2022-10-04T02:34:01.725Z,62.70
2022-10-04T02:35:01.855Z,62.60
2022-10-04T02:36:01.734Z,62.60
2022-10-04T02:37:01.687Z,62.30
2022-10-04T02:38:01.965Z,62.60
2022-10-04T02:39:01.682Z,62.40
2022-10-04T02:40:01.676Z,62.40
2022-10-04T02:41:01.639Z,62.60
2022-10-04T02:42:01.636Z,62.50
2022-10-04T02:43:01.595Z,62.60
2022-10-04T02:44:01.903Z,62.60
2022-10-04T02:45:01.591Z,62.30
2022-10-04T02:46:01.610Z,62.40
2022-10-04T02:47:01.545Z,62.30
2022-10-04T02:48:01.563Z,62.50
2022-10-04T02:49:01.514Z,62.50
2022-10-04T02:50:01.656Z,62.60
2022-10-04T02:51:01.492Z,62.40
2022-10-04T02:52:01.479Z,62.40
2022-10-04T02:53:01.485Z,62.20
2022-10-04T02:54:03.571Z,62.40
2022-10-04T02:55:01.448Z,62.50
2022-10-04T02:56:01.660Z,62.60
2022-10-04T02:57:01.423Z,62.43
2022-10-04T02:58:01.549Z,62.34
2022-10-04T02:59:01.392Z,62.40
2022-10-04T03:00:01.385Z,62.60
2022-10-04T03:01:01.427Z,62.50
2022-10-04T03:02:01.433Z,62.53
2022-10-04T03:03:01.320Z,62.50
2022-10-04T03:04:01.775Z,62.53
2022-10-04T03:05:01.316Z,62.73
2022-10-04T03:06:01.276Z,62.43
2022-10-04T03:07:01.309Z,62.53
2022-10-04T03:08:01.299Z,62.53
2022-10-04T03:09:01.250Z,62.43
2022-10-04T03:10:01.381Z,62.53
2022-10-04T03:11:01.249Z,62.53
2022-10-04T03:12:01.212Z,62.53
2022-10-04T03:13:01.208Z,62.34
2022-10-04T03:14:01.177Z,62.34
2022-10-04T03:15:01.157Z,62.53
2022-10-04T03:16:01.339Z,62.43
2022-10-04T03:17:01.134Z,62.43
2022-10-04T03:18:01.132Z,62.23
2022-10-04T03:19:01.589Z,62.53
2022-10-04T03:20:01.114Z,62.43
2022-10-04T03:21:01.068Z,62.23
2022-10-04T03:22:01.143Z,62.23
2022-10-04T03:23:01.047Z,62.13
2022-10-04T03:24:01.026Z,62.13
2022-10-04T03:25:01.012Z,62.23
2022-10-04T03:26:01.038Z,62.34
2022-10-04T03:27:00.982Z,62.53
2022-10-04T03:28:01.187Z,62.34
2022-10-04T03:29:00.985Z,62.23
2022-10-04T03:30:00.950Z,62.34
2022-10-04T03:31:01.158Z,62.43
2022-10-04T03:32:00.953Z,62.34
2022-10-04T03:33:02.073Z,62.34
2022-10-04T03:34:00.902Z,62.43
2022-10-04T03:35:00.915Z,62.34
2022-10-04T03:36:00.876Z,62.34
2022-10-04T03:37:00.846Z,62.63
2022-10-04T03:38:01.019Z,62.23
2022-10-04T03:39:00.924Z,62.23
2022-10-04T03:40:00.805Z,62.34
2022-10-04T03:41:00.807Z,62.23
2022-10-04T03:42:00.819Z,62.43
2022-10-04T03:43:00.785Z,62.23
2022-10-04T03:44:04.900Z,62.34
2022-10-04T03:45:00.938Z,62.34
2022-10-04T03:46:00.847Z,62.43
2022-10-04T03:47:00.710Z,62.43
2022-10-04T03:48:00.714Z,62.43
2022-10-04T03:49:01.072Z,62.34
2022-10-04T03:50:00.748Z,62.26
2022-10-04T03:51:00.819Z,62.23
2022-10-04T03:52:01.334Z,62.23
2022-10-04T03:53:00.639Z,62.13
2022-10-04T03:54:00.630Z,62.13
2022-10-04T03:55:00.612Z,62.37
2022-10-04T03:56:04.253Z,62.56
2022-10-04T03:57:00.761Z,62.46
2022-10-04T03:58:00.598Z,62.37
2022-10-04T03:59:00.546Z,62.56
2022-10-04T04:00:00.670Z,62.46
2022-10-04T04:01:01.424Z,62.53
2022-10-04T04:02:00.565Z,62.46
2022-10-04T04:03:00.710Z,62.26
2022-10-04T04:04:01.318Z,62.26
2022-10-04T04:05:00.679Z,62.16
2022-10-04T04:06:00.471Z,62.37
2022-10-04T04:07:00.430Z,62.37
2022-10-04T04:08:00.452Z,62.26
2022-10-04T04:09:00.489Z,62.37
2022-10-04T04:10:00.417Z,62.46
2022-10-04T04:11:00.398Z,62.26
2022-10-04T04:12:00.363Z,62.37
2022-10-04T04:13:00.357Z,62.46
2022-10-04T04:14:00.374Z,62.26
2022-10-04T04:15:01.434Z,62.37
2022-10-04T04:16:00.350Z,62.26
2022-10-04T04:17:00.290Z,62.16
2022-10-04T04:18:00.288Z,62.26
2022-10-04T04:19:00.278Z,62.26
2022-10-04T04:20:04.756Z,62.06
2022-10-04T04:21:01.493Z,62.37
2022-10-04T04:22:00.225Z,62.26
2022-10-04T04:23:00.213Z,62.26
2022-10-04T04:24:00.205Z,62.37
2022-10-04T04:25:00.892Z,62.26
2022-10-04T04:26:00.204Z,62.26
2022-10-04T04:27:00.385Z,62.26
2022-10-04T04:28:01.028Z,62.46
2022-10-04T04:29:00.136Z,62.56
2022-10-04T04:30:00.115Z,62.46
2022-10-04T04:31:00.096Z,62.26
2022-10-04T04:32:00.409Z,62.26
2022-10-04T04:33:00.176Z,62.26
2022-10-04T04:34:00.920Z,62.26
2022-10-04T04:35:00.042Z,62.16
2022-10-04T04:36:00.029Z,62.37
2022-10-04T04:37:00.792Z,62.16
2022-10-04T04:38:00.039Z,62.06
2022-10-04T04:39:00.057Z,62.26
2022-10-04T04:40:00.138Z,62.26
2022-10-04T04:40:59.953Z,62.16
2022-10-04T04:41:59.949Z,62.26
2022-10-04T04:42:59.932Z,62.26
2022-10-04T04:44:00.031Z,62.26
2022-10-04T04:45:00.055Z,62.26
2022-10-04T04:46:25.657Z,62.37
2022-10-04T04:47:01.023Z,62.37
2022-10-04T04:47:59.863Z,62.37
2022-10-04T04:48:59.837Z,62.26
2022-10-04T04:49:59.847Z,62.16
2022-10-04T04:50:59.899Z,62.26
2022-10-04T04:51:59.900Z,62.26
2022-10-04T04:52:59.777Z,62.46
2022-10-04T04:53:59.799Z,62.49
2022-10-04T04:54:59.757Z,62.26
2022-10-04T04:56:04.629Z,62.37
2022-10-04T04:57:01.119Z,62.56
2022-10-04T04:57:59.711Z,62.56
2022-10-04T04:58:59.725Z,62.46
2022-10-04T04:59:59.726Z,62.39
2022-10-04T05:00:59.735Z,62.56
2022-10-04T05:01:59.752Z,62.59
2022-10-04T05:02:59.827Z,62.76
2022-10-04T05:03:59.633Z,62.76
2022-10-04T05:04:59.625Z,62.79
2022-10-04T05:05:59.626Z,62.79
2022-10-04T05:06:59.587Z,62.76
2022-10-04T05:07:59.609Z,62.76
2022-10-04T05:08:59.773Z,62.96
2022-10-04T05:09:59.544Z,62.96
2022-10-04T05:10:59.549Z,62.96
2022-10-04T05:11:59.531Z,62.86
2022-10-04T05:12:59.499Z,63.17
2022-10-04T05:13:59.509Z,63.26
2022-10-04T05:14:59.731Z,63.76
2022-10-04T05:15:59.517Z,64.36
2022-10-04T05:16:59.454Z,64.66
2022-10-04T05:17:59.470Z,64.86
2022-10-04T05:18:59.420Z,64.66
2022-10-04T05:19:59.424Z,64.46
2022-10-04T05:20:59.499Z,64.46
2022-10-04T05:21:59.519Z,64.36
2022-10-04T05:22:59.474Z,64.36
2022-10-04T05:23:59.473Z,64.46
2022-10-04T05:24:59.331Z,64.36
2022-10-04T05:25:59.483Z,64.46
2022-10-04T05:26:59.534Z,64.96
2022-10-04T05:27:59.347Z,64.66
2022-10-04T05:28:59.293Z,64.56
2022-10-04T05:29:59.277Z,64.46
2022-10-04T05:30:59.245Z,65.06
2022-10-04T05:31:59.343Z,64.96
2022-10-04T05:32:59.315Z,64.66
2022-10-04T05:33:59.408Z,64.56
2022-10-04T05:34:59.195Z,64.56
2022-10-04T05:35:59.218Z,64.56
2022-10-04T05:36:59.167Z,64.56
2022-10-04T05:37:59.180Z,64.56
2022-10-04T05:38:59.299Z,64.56
2022-10-04T05:39:59.143Z,64.36
2022-10-04T05:40:59.134Z,64.36
2022-10-04T05:41:59.092Z,64.46
2022-10-04T05:42:59.117Z,64.36
2022-10-04T05:43:59.078Z,64.46
2022-10-04T05:44:59.240Z,64.26
2022-10-04T05:45:59.090Z,64.36
2022-10-04T05:46:59.022Z,64.56
2022-10-04T05:47:59.004Z,64.26
2022-10-04T05:48:58.999Z,64.26
2022-10-04T05:49:59.053Z,64.26
2022-10-04T05:50:59.054Z,64.26
2022-10-04T05:51:58.979Z,64.56
2022-10-04T05:52:58.931Z,64.56
2022-10-04T05:53:58.931Z,64.56
2022-10-04T05:54:58.915Z,64.66
2022-10-04T05:55:58.925Z,64.46
2022-10-04T05:56:58.981Z,64.56
2022-10-04T05:57:58.868Z,64.46
2022-10-04T05:58:58.859Z,64.36
2022-10-04T06:00:03.887Z,64.36
2022-10-04T06:00:59.894Z,64.26
2022-10-04T06:01:58.909Z,64.16
2022-10-04T06:02:58.947Z,64.16
2022-10-04T06:03:59.578Z,64.26
2022-10-04T06:04:58.761Z,64.26
2022-10-04T06:05:58.744Z,64.26
2022-10-04T06:06:58.810Z,64.26
2022-10-04T06:07:58.736Z,64.26
2022-10-04T06:08:58.788Z,64.16
2022-10-04T06:09:58.701Z,64.26
2022-10-04T06:10:58.700Z,64.26
2022-10-04T06:11:58.680Z,64.26
2022-10-04T06:12:58.684Z,64.46
2022-10-04T06:13:58.656Z,64.36
2022-10-04T06:14:58.703Z,64.36
2022-10-04T06:15:58.620Z,64.36
2022-10-04T06:16:58.711Z,64.46
2022-10-04T06:17:58.580Z,64.46
2022-10-04T06:18:58.642Z,64.56
2022-10-04T06:19:58.565Z,64.66
2022-10-04T06:20:58.963Z,64.56
2022-10-04T06:21:58.553Z,64.46
2022-10-04T06:22:58.518Z,64.56
2022-10-04T06:23:58.497Z,65.46
2022-10-04T06:24:58.534Z,64.96
2022-10-04T06:25:58.508Z,65.26
2022-10-04T06:26:58.821Z,65.16
2022-10-04T06:27:59.056Z,64.86
2022-10-04T06:28:58.428Z,64.86
2022-10-04T06:29:58.435Z,64.86
2022-10-04T06:30:58.488Z,64.76
2022-10-04T06:31:58.390Z,64.86
2022-10-04T06:32:58.538Z,64.86
2022-10-04T06:33:58.389Z,64.76
2022-10-04T06:34:58.346Z,64.76
2022-10-04T06:35:58.330Z,64.66
2022-10-04T06:36:58.378Z,64.66
2022-10-04T06:37:58.475Z,64.66
2022-10-04T06:39:03.315Z,64.56
2022-10-04T06:39:59.314Z,64.66
2022-10-04T06:40:58.257Z,64.66
2022-10-04T06:41:58.267Z,64.66
2022-10-04T06:42:58.291Z,64.66
2022-10-04T06:43:58.280Z,64.56
2022-10-04T06:44:58.374Z,64.56
2022-10-04T06:45:58.236Z,64.56
2022-10-04T06:46:58.176Z,64.56
2022-10-04T06:47:58.197Z,64.56
2022-10-04T06:48:58.190Z,64.56
2022-10-04T06:49:58.163Z,64.56
2022-10-04T06:50:58.292Z,64.56
2022-10-04T06:51:58.129Z,64.56
2022-10-04T06:52:58.082Z,64.46
2022-10-04T06:53:58.110Z,64.36
2022-10-04T06:54:58.262Z,64.36
2022-10-04T06:55:58.086Z,64.46
2022-10-04T06:56:58.141Z,64.36
2022-10-04T06:57:58.029Z,64.46
2022-10-04T06:58:58.003Z,64.26
2022-10-04T06:59:58.005Z,64.36
2022-10-04T07:00:58.171Z,64.36
2022-10-04T07:01:59.001Z,64.56
2022-10-04T07:02:58.180Z,64.46
2022-10-04T07:03:57.928Z,64.36
2022-10-04T07:05:13.242Z,64.66
2022-10-04T07:05:59.165Z,64.56
2022-10-04T07:06:57.893Z,64.46
2022-10-04T07:07:57.903Z,64.76
2022-10-04T07:08:58.034Z,64.96
2022-10-04T07:09:57.854Z,65.06
2022-10-04T07:10:57.855Z,65.26
2022-10-04T07:11:57.857Z,65.26
2022-10-04T07:12:57.803Z,65.46
2022-10-04T07:13:57.833Z,65.56
2022-10-04T07:14:57.951Z,65.26
2022-10-04T07:15:57.893Z,65.36
2022-10-04T07:16:57.757Z,65.26
2022-10-04T07:17:57.784Z,65.36
2022-10-04T07:18:57.731Z,65.26
2022-10-04T07:19:57.738Z,65.26
2022-10-04T07:20:58.115Z,65.26
2022-10-04T07:21:57.730Z,65.26
2022-10-04T07:22:57.674Z,65.26
2022-10-04T07:23:57.703Z,65.36
2022-10-04T07:24:57.669Z,65.36
2022-10-04T07:25:57.678Z,65.33
2022-10-04T07:26:57.715Z,65.36
2022-10-04T07:27:57.649Z,65.36
2022-10-04T07:28:57.597Z,65.46
2022-10-04T07:29:57.651Z,65.56
2022-10-04T07:30:57.829Z,65.66
2022-10-04T07:31:57.564Z,65.63
2022-10-04T07:32:57.868Z,65.53
2022-10-04T07:33:57.520Z,65.53
2022-10-04T07:34:57.533Z,65.53
2022-10-04T07:35:57.660Z,65.63
2022-10-04T07:36:57.791Z,65.63
2022-10-04T07:37:58.547Z,65.63
2022-10-04T07:38:58.077Z,65.63
2022-10-04T07:39:57.736Z,65.53
2022-10-04T07:40:57.769Z,65.53
2022-10-04T07:41:57.511Z,65.53
2022-10-04T07:42:57.604Z,65.63
2022-10-04T07:43:57.893Z,65.63
2022-10-04T07:44:57.796Z,65.53
2022-10-04T07:45:57.440Z,65.63
2022-10-04T07:46:57.765Z,65.63
2022-10-04T07:47:57.379Z,65.63
2022-10-04T07:48:57.769Z,65.63
2022-10-04T07:49:57.313Z,65.63
2022-10-04T07:50:57.393Z,65.53
2022-10-04T07:51:57.756Z,65.43
2022-10-04T07:52:57.313Z,65.53
2022-10-04T07:53:57.328Z,65.63
2022-10-04T07:54:57.225Z,65.43
2022-10-04T07:55:57.771Z,65.43
2022-10-04T07:56:57.442Z,65.43
2022-10-04T07:57:57.225Z,65.43
2022-10-04T07:58:57.653Z,65.43
2022-10-04T07:59:57.762Z,65.43
2022-10-04T08:00:57.144Z,65.23
2022-10-04T08:01:57.153Z,65.23
2022-10-04T08:02:58.346Z,65.23
2022-10-04T08:03:57.118Z,65.23
2022-10-04T08:04:57.103Z,65.23
2022-10-04T08:05:57.157Z,65.23
2022-10-04T08:06:57.226Z,65.13
2022-10-04T08:07:57.190Z,65.13
2022-10-04T08:08:57.185Z,65.10
2022-10-04T08:09:57.019Z,65.13
2022-10-04T08:10:57.563Z,65.10
2022-10-04T08:11:57.034Z,65.10
2022-10-04T08:12:56.969Z,65.10
2022-10-04T08:13:56.992Z,65.00
2022-10-04T08:14:57.070Z,64.90
2022-10-04T08:15:57.052Z,64.90
2022-10-04T08:16:56.924Z,65.00
2022-10-04T08:17:56.988Z,65.00
2022-10-04T08:18:56.924Z,65.00
2022-10-04T08:19:56.972Z,64.90
2022-10-04T08:20:57.191Z,64.90
2022-10-04T08:21:56.909Z,64.90
2022-10-04T08:22:56.829Z,64.90
2022-10-04T08:23:57.044Z,64.90
2022-10-04T08:24:56.884Z,64.90
2022-10-04T08:25:56.841Z,64.90
2022-10-04T08:26:57.761Z,64.80
2022-10-04T08:27:56.841Z,64.80
2022-10-04T08:28:56.975Z,64.80
2022-10-04T08:29:56.787Z,64.70
2022-10-04T08:30:56.873Z,64.70
2022-10-04T08:31:56.757Z,64.60
2022-10-04T08:32:56.868Z,64.70
2022-10-04T08:33:56.706Z,64.70
2022-10-04T08:34:56.678Z,64.70
2022-10-04T08:35:56.686Z,64.70
2022-10-04T08:36:56.684Z,64.60
2022-10-04T08:37:56.633Z,64.60
2022-10-04T08:38:56.850Z,64.60
2022-10-04T08:39:56.732Z,64.50
2022-10-04T08:40:56.681Z,64.50
2022-10-04T08:41:56.929Z,64.40
2022-10-04T08:42:56.711Z,64.40
2022-10-04T08:43:56.560Z,64.30
2022-10-04T08:44:56.618Z,64.27
2022-10-04T08:45:56.730Z,64.27
2022-10-04T08:46:56.552Z,64.27
2022-10-04T08:47:56.530Z,64.27
2022-10-04T08:48:56.465Z,64.27
2022-10-04T08:49:56.462Z,64.27
2022-10-04T08:50:56.796Z,64.17
2022-10-04T08:51:56.438Z,64.17
2022-10-04T08:52:56.410Z,64.07
2022-10-04T08:53:56.438Z,64.07
2022-10-04T08:54:56.431Z,64.07
2022-10-04T08:55:56.455Z,64.07
2022-10-04T08:56:56.487Z,63.97
2022-10-04T08:57:56.389Z,63.97
2022-10-04T08:58:56.325Z,63.97
2022-10-04T08:59:56.351Z,63.97
2022-10-04T09:00:56.409Z,63.97
2022-10-04T09:01:56.543Z,63.87
2022-10-04T09:02:56.725Z,63.87
2022-10-04T09:03:56.483Z,63.87
2022-10-04T09:04:56.236Z,63.87
2022-10-04T09:05:56.556Z,63.77
2022-10-04T09:06:56.211Z,63.87
2022-10-04T09:07:56.464Z,63.77
2022-10-04T09:08:56.356Z,63.77
2022-10-04T09:09:56.200Z,63.74
2022-10-04T09:10:56.178Z,63.74
2022-10-04T09:11:56.170Z,63.84
2022-10-04T09:12:56.504Z,63.74
2022-10-04T09:13:56.144Z,63.74
2022-10-04T09:14:56.335Z,63.64
2022-10-04T09:15:56.163Z,63.64
2022-10-04T09:16:56.077Z,63.84
2022-10-04T09:17:56.148Z,63.74
2022-10-04T09:18:56.080Z,63.74
2022-10-04T09:20:04.872Z,63.84
2022-10-04T09:20:57.246Z,63.64
2022-10-04T09:21:56.001Z,63.64
2022-10-04T09:22:56.020Z,63.54
2022-10-04T09:23:56.039Z,63.64
2022-10-04T09:24:55.961Z,63.64
2022-10-04T09:25:55.938Z,63.64
2022-10-04T09:26:56.147Z,63.54
2022-10-04T09:27:56.015Z,63.64
2022-10-04T09:28:55.940Z,63.54
2022-10-04T09:29:55.962Z,63.54
2022-10-04T09:30:55.964Z,63.44
2022-10-04T09:31:55.900Z,63.44
2022-10-04T09:32:56.059Z,63.34
2022-10-04T09:33:55.864Z,63.34
2022-10-04T09:34:55.822Z,63.24
2022-10-04T09:35:55.885Z,63.24
2022-10-04T09:36:55.868Z,63.14
2022-10-04T09:37:55.815Z,63.24
2022-10-04T09:39:17.896Z,63.14
2022-10-04T09:39:56.763Z,63.14
2022-10-04T09:40:55.740Z,63.14
2022-10-04T09:41:55.758Z,63.24
2022-10-04T09:42:55.725Z,63.04
2022-10-04T09:43:55.723Z,63.04
2022-10-04T09:44:55.767Z,63.04
2022-10-04T09:45:55.773Z,62.94
2022-10-04T09:46:56.623Z,63.04
2022-10-04T09:47:55.853Z,63.04
2022-10-04T09:48:55.684Z,62.94
2022-10-04T09:49:55.626Z,62.94
2022-10-04T09:50:55.703Z,62.94
2022-10-04T09:51:55.644Z,62.94
2022-10-04T09:52:55.591Z,62.84
2022-10-04T09:53:55.601Z,63.04
2022-10-04T09:54:55.536Z,63.04
2022-10-04T09:55:55.572Z,63.04
2022-10-04T09:56:55.670Z,63.14
2022-10-04T09:57:55.611Z,63.14
2022-10-04T09:58:55.516Z,63.14
2022-10-04T09:59:55.556Z,63.24
2022-10-04T10:00:55.457Z,63.24
2022-10-04T10:01:55.523Z,63.34
2022-10-04T10:02:55.773Z,63.44
2022-10-04T10:03:55.428Z,63.54
2022-10-04T10:04:55.424Z,63.64
2022-10-04T10:05:55.482Z,63.64
2022-10-04T10:06:55.402Z,63.54
2022-10-04T10:07:55.362Z,63.54
2022-10-04T10:08:55.443Z,63.54
2022-10-04T10:09:55.359Z,63.54
2022-10-04T10:10:55.326Z,63.54
2022-10-04T10:11:55.605Z,63.64
2022-10-04T10:12:55.303Z,63.74
2022-10-04T10:13:55.267Z,63.74
2022-10-04T10:14:55.504Z,63.74
2022-10-04T10:15:55.303Z,63.74
2022-10-04T10:16:55.226Z,63.84
2022-10-04T10:17:55.273Z,63.71
2022-10-04T10:18:55.199Z,63.64
2022-10-04T10:19:55.243Z,63.64
2022-10-04T10:20:55.285Z,63.51
2022-10-04T10:21:55.360Z,63.51
2022-10-04T10:22:55.158Z,63.61
2022-10-04T10:23:55.158Z,63.61
2022-10-04T10:24:58.430Z,63.61
2022-10-04T10:25:55.125Z,63.51
2022-10-04T10:26:55.253Z,63.51
2022-10-04T10:27:55.145Z,63.51
2022-10-04T10:28:55.072Z,63.51
2022-10-04T10:29:55.161Z,63.51
2022-10-04T10:30:55.113Z,63.41
2022-10-04T10:31:55.029Z,63.41
2022-10-04T10:32:55.495Z,63.41
2022-10-04T10:33:55.034Z,63.41
2022-10-04T10:34:55.034Z,63.38
2022-10-04T10:35:54.996Z,63.38
2022-10-04T10:36:54.992Z,63.28
2022-10-04T10:37:54.940Z,63.28
2022-10-04T10:38:55.084Z,63.18
2022-10-04T10:39:54.902Z,63.18
2022-10-04T10:40:55.032Z,63.08
2022-10-04T10:41:54.924Z,63.08
2022-10-04T10:42:54.919Z,62.98
2022-10-04T10:43:54.888Z,62.98
2022-10-04T10:44:54.970Z,62.95
2022-10-04T10:45:54.821Z,62.95
2022-10-04T10:46:54.939Z,62.95
2022-10-04T10:47:54.841Z,62.85
2022-10-04T10:48:54.794Z,62.85
2022-10-04T10:49:54.962Z,62.85
2022-10-04T10:50:54.954Z,62.85
2022-10-04T10:51:54.756Z,62.85
2022-10-04T10:52:54.752Z,62.75
2022-10-04T10:53:54.763Z,62.75
2022-10-04T10:54:54.751Z,62.75
2022-10-04T10:55:54.687Z,62.75
2022-10-04T10:56:54.775Z,62.65
2022-10-04T10:57:54.654Z,62.72
2022-10-04T10:58:54.646Z,62.62
2022-10-04T10:59:54.660Z,62.62
2022-10-04T11:00:54.644Z,62.62
2022-10-04T11:01:54.857Z,62.52
2022-10-04T11:03:07.165Z,62.52
2022-10-04T11:03:55.688Z,62.52
2022-10-04T11:04:54.593Z,62.52
2022-10-04T11:05:54.585Z,62.52
2022-10-04T11:06:54.529Z,62.52
2022-10-04T11:07:54.510Z,62.42
2022-10-04T11:08:54.920Z,62.42
2022-10-04T11:09:54.502Z,62.42
2022-10-04T11:10:54.506Z,62.42
2022-10-04T11:11:54.488Z,62.40
2022-10-04T11:12:54.478Z,62.29
2022-10-04T11:13:54.424Z,62.40
2022-10-04T11:14:54.611Z,62.40
2022-10-04T11:15:54.476Z,62.49
2022-10-04T11:16:54.414Z,62.40
2022-10-04T11:17:54.535Z,62.59
2022-10-04T11:18:54.373Z,62.59
2022-10-04T11:19:54.998Z,62.49
2022-10-04T11:20:54.441Z,62.49
2022-10-04T11:21:54.622Z,62.40
2022-10-04T11:22:54.328Z,62.40
2022-10-04T11:23:54.494Z,62.49
2022-10-04T11:24:54.833Z,62.40
2022-10-04T11:25:54.279Z,62.29
2022-10-04T11:26:54.419Z,62.29
2022-10-04T11:27:57.213Z,62.19
2022-10-04T11:28:54.227Z,62.16
2022-10-04T11:29:54.480Z,62.19
2022-10-04T11:30:54.279Z,62.16
2022-10-04T11:31:54.416Z,62.16
2022-10-04T11:32:54.339Z,62.37
2022-10-04T11:33:54.996Z,62.26
2022-10-04T11:34:54.155Z,62.26
2022-10-04T11:35:54.174Z,62.16
2022-10-04T11:36:54.178Z,62.46
2022-10-04T11:37:54.119Z,62.37
2022-10-04T11:38:54.789Z,62.46
2022-10-04T11:39:54.091Z,62.56
2022-10-04T11:40:54.070Z,62.46
2022-10-04T11:41:54.093Z,62.46
2022-10-04T11:42:54.054Z,62.46
2022-10-04T11:43:54.180Z,62.37
2022-10-04T11:44:54.357Z,62.26
2022-10-04T11:45:54.004Z,62.37
2022-10-04T11:46:54.034Z,62.26
2022-10-04T11:47:53.999Z,62.26
2022-10-04T11:48:53.967Z,62.37
2022-10-04T11:49:54.072Z,62.37
2022-10-04T11:50:54.095Z,62.37
2022-10-04T11:51:56.556Z,62.46
2022-10-04T11:52:53.896Z,62.46
2022-10-04T11:53:54.294Z,62.46
2022-10-04T11:54:53.872Z,62.46
2022-10-04T11:55:54.329Z,62.56
2022-10-04T11:56:54.046Z,62.56
2022-10-04T11:57:53.866Z,62.56
2022-10-04T11:58:54.290Z,62.56
2022-10-04T11:59:53.943Z,62.56
2022-10-04T12:00:54.572Z,62.56
2022-10-04T12:01:53.880Z,62.66
2022-10-04T12:02:53.963Z,62.76
2022-10-04T12:03:53.810Z,62.76
2022-10-04T12:04:53.886Z,62.66
2022-10-04T12:05:53.747Z,62.96
2022-10-04T12:06:53.702Z,62.86
2022-10-04T12:07:53.676Z,62.76
2022-10-04T12:08:53.852Z,62.66
2022-10-04T12:09:57.431Z,62.56
2022-10-04T12:10:55.391Z,62.56
2022-10-04T12:11:53.786Z,62.56
2022-10-04T12:12:53.604Z,62.56
2022-10-04T12:13:53.774Z,62.96
2022-10-04T12:14:53.690Z,62.96
2022-10-04T12:15:53.673Z,62.86
2022-10-04T12:16:53.644Z,62.76
2022-10-04T12:17:53.741Z,62.66
2022-10-04T12:18:53.690Z,62.66
2022-10-04T12:19:53.520Z,62.66
2022-10-04T12:20:53.633Z,62.66
2022-10-04T12:21:53.564Z,62.76
2022-10-04T12:22:53.677Z,62.66
2022-10-04T12:23:53.548Z,62.73
2022-10-04T12:24:53.442Z,62.76
2022-10-04T12:25:53.492Z,62.76
2022-10-04T12:26:53.522Z,62.73
2022-10-04T12:27:53.631Z,62.73
2022-10-04T12:28:53.438Z,62.83
2022-10-04T12:29:53.410Z,62.73
2022-10-04T12:30:53.366Z,62.73
2022-10-04T12:31:53.558Z,62.73
2022-10-04T12:32:57.796Z,62.83
2022-10-04T12:33:53.497Z,62.83
2022-10-04T12:34:53.320Z,62.83
2022-10-04T12:35:53.286Z,62.93
2022-10-04T12:36:53.286Z,62.83
2022-10-04T12:37:53.253Z,62.93
2022-10-04T12:38:53.424Z,62.93
2022-10-04T12:39:53.245Z,62.93
2022-10-04T12:40:53.264Z,62.93
2022-10-04T12:41:53.255Z,62.83
2022-10-04T12:42:53.186Z,62.93
2022-10-04T12:43:53.273Z,62.83
2022-10-04T12:44:53.317Z,62.93
2022-10-04T12:45:53.245Z,62.83
2022-10-04T12:46:53.180Z,62.93
2022-10-04T12:47:53.121Z,62.93
2022-10-04T12:48:53.141Z,63.03
2022-10-04T12:49:53.085Z,63.03
2022-10-04T12:50:53.224Z,63.03
2022-10-04T12:51:53.063Z,63.13